createdAt,value
2022-11-22T00:00:47.577Z,12.70
2022-11-22T00:03:15.076Z,13.63
2022-11-22T00:05:42.573Z,8.00
2022-11-22T00:08:10.463Z,5.10
2022-11-22T00:10:39.604Z,12.50
2022-11-22T00:13:07.109Z,11.83
2022-11-22T00:15:34.945Z,8.87
2022-11-22T00:18:02.560Z,12.30
2022-11-22T00:20:30.187Z,11.07
2022-11-22T00:23:00.786Z,9.80
2022-11-22T00:25:28.336Z,9.70
2022-11-22T00:27:57.136Z,5.67
2022-11-22T00:30:24.679Z,9.77
2022-11-22T00:32:52.193Z,8.77
2022-11-22T00:35:19.701Z,11.43
2022-11-22T00:37:47.741Z,12.17
2022-11-22T00:40:15.677Z,16.30
2022-11-22T00:42:43.276Z,5.73
2022-11-22T00:45:12.703Z,9.00
2022-11-22T00:47:40.245Z,10.37
2022-11-22T00:50:08.357Z,6.77
2022-11-22T00:52:35.889Z,3.57
2022-11-22T00:55:03.456Z,9.93
2022-11-22T00:57:31.082Z,9.70
2022-11-22T00:59:58.604Z,7.83
2022-11-22T01:02:27.540Z,11.10
2022-11-22T01:04:55.012Z,8.73
2022-11-22T01:07:22.623Z,19.03
2022-11-22T01:09:50.130Z,6.47
2022-11-22T01:12:17.668Z,13.33
2022-11-22T01:14:45.153Z,8.00
2022-11-22T01:17:12.768Z,8.80
2022-11-22T01:19:41.827Z,6.70
2022-11-22T01:22:09.364Z,11.23
2022-11-22T01:24:36.840Z,10.00
2022-11-22T01:27:04.400Z,12.63
2022-11-22T01:29:32.081Z,11.97
2022-11-22T01:31:59.806Z,12.17
2022-11-22T01:34:27.398Z,13.83
2022-11-22T01:36:56.316Z,9.17
2022-11-22T01:39:23.800Z,15.70
2022-11-22T01:41:51.308Z,8.70
2022-11-22T01:44:20.304Z,8.20
2022-11-22T01:46:50.242Z,10.47
2022-11-22T01:49:27.247Z,12.53
2022-11-22T01:52:00.666Z,6.57
2022-11-22T01:54:33.298Z,9.27
2022-11-22T01:57:06.650Z,9.37
2022-11-22T01:59:36.523Z,9.67
2022-11-22T02:02:05.250Z,13.70
2022-11-22T02:04:33.862Z,13.10
2022-11-22T02:07:09.560Z,13.93
2022-11-22T02:09:38.760Z,11.93
2022-11-22T02:12:09.345Z,10.37
2022-11-22T02:14:39.337Z,6.87
2022-11-22T02:17:07.102Z,9.13
2022-11-22T02:19:41.536Z,9.00
2022-11-22T02:22:20.559Z,8.50
2022-11-22T02:24:55.529Z,11.37
2022-11-22T02:27:24.769Z,12.87
2022-11-22T02:29:52.349Z,15.33
2022-11-22T02:32:19.901Z,12.77
2022-11-22T02:34:48.837Z,17.27
2022-11-22T02:37:20.212Z,12.20
2022-11-22T02:39:49.183Z,13.60
2022-11-22T02:42:16.844Z,13.07
2022-11-22T02:44:45.720Z,13.03
2022-11-22T02:47:13.329Z,9.90
2022-11-22T02:49:40.853Z,11.60
2022-11-22T02:52:08.346Z,15.17
2022-11-22T02:54:35.879Z,8.13
2022-11-22T02:57:03.845Z,11.03
2022-11-22T02:59:31.877Z,14.63
2022-11-22T03:02:03.429Z,13.53
2022-11-22T03:04:31.367Z,14.60
2022-11-22T03:07:00.919Z,11.30
2022-11-22T03:09:29.558Z,10.73
2022-11-22T03:11:57.262Z,10.03
2022-11-22T03:14:25.143Z,6.30
2022-11-22T03:16:52.907Z,13.53
2022-11-22T03:19:22.366Z,14.20
2022-11-22T03:21:49.876Z,18.20
2022-11-22T03:24:17.481Z,11.93
2022-11-22T03:26:47.901Z,8.63
2022-11-22T03:29:15.742Z,9.43
2022-11-22T03:31:43.244Z,11.50
2022-11-22T03:34:12.349Z,10.70
2022-11-22T03:36:41.134Z,17.83
2022-11-22T03:39:08.729Z,5.00
2022-11-22T03:41:36.230Z,8.20
2022-11-22T03:44:04.909Z,18.73
2022-11-22T03:46:32.456Z,15.60
2022-11-22T03:48:59.943Z,14.37
2022-11-22T03:51:27.562Z,17.30
2022-11-22T03:53:56.419Z,13.10
2022-11-22T03:56:23.908Z,7.13
2022-11-22T03:58:51.462Z,12.20
2022-11-22T04:01:19.038Z,17.37
2022-11-22T04:03:46.689Z,15.87
2022-11-22T04:06:14.194Z,17.17
2022-11-22T04:08:41.822Z,11.90
2022-11-22T04:11:10.788Z,10.20
2022-11-22T04:13:55.985Z,18.53
2022-11-22T04:16:23.546Z,14.40
2022-11-22T04:18:51.054Z,14.93
2022-11-22T04:21:35.612Z,18.97
2022-11-22T04:24:20.985Z,13.17
2022-11-22T04:26:50.292Z,19.33
2022-11-22T04:29:19.968Z,14.80
2022-11-22T04:32:05.844Z,17.43
2022-11-22T04:34:33.660Z,14.77
2022-11-22T04:37:01.932Z,11.03
2022-11-22T04:39:29.956Z,13.40
2022-11-22T04:42:17.368Z,14.77
2022-11-22T04:44:45.913Z,20.13
2022-11-22T04:47:37.819Z,22.00
2022-11-22T04:50:28.833Z,13.70
2022-11-22T04:52:56.318Z,14.43
2022-11-22T04:55:24.349Z,12.20
2022-11-22T04:57:58.863Z,26.53
2022-11-22T05:00:28.239Z,16.37
2022-11-22T05:02:55.843Z,16.73
2022-11-22T05:05:23.312Z,18.13
2022-11-22T05:07:50.889Z,17.13
2022-11-22T05:10:24.485Z,22.37
2022-11-22T05:12:55.361Z,15.37
2022-11-22T05:15:22.874Z,10.03
2022-11-22T05:17:50.440Z,11.47
2022-11-22T05:20:18.023Z,13.13
2022-11-22T05:23:02.970Z,16.83
2022-11-22T05:25:30.623Z,20.17
2022-11-22T05:27:59.447Z,16.00
2022-11-22T05:30:26.909Z,16.17
2022-11-22T05:32:55.970Z,19.77
2022-11-22T05:35:23.507Z,14.27
2022-11-22T05:37:51.007Z,24.77
2022-11-22T05:40:18.447Z,21.57
2022-11-22T05:42:45.894Z,22.83
2022-11-22T05:45:14.865Z,10.97
2022-11-22T05:47:42.676Z,18.23
2022-11-22T05:50:11.083Z,13.37
2022-11-22T05:52:39.301Z,15.60
2022-11-22T05:55:07.922Z,15.20
2022-11-22T05:57:35.441Z,14.30
2022-11-22T06:00:03.457Z,13.17
2022-11-22T06:02:42.669Z,13.40
2022-11-22T06:05:12.202Z,6.10
2022-11-22T06:07:41.321Z,17.17
2022-11-22T06:10:11.277Z,8.57
2022-11-22T06:12:41.190Z,10.67
2022-11-22T06:15:11.722Z,16.10
2022-11-22T06:17:45.145Z,24.90
2022-11-22T06:23:54.905Z,15.67
2022-11-22T06:27:18.319Z,9.67
2022-11-22T06:31:46.888Z,17.00
2022-11-22T06:45:41.135Z,15.57
2022-11-22T06:49:11.102Z,6.87
2022-11-22T06:51:52.415Z,15.80
2022-11-22T06:59:17.052Z,16.50
2022-11-22T07:01:53.972Z,21.97
2022-11-22T07:04:23.099Z,15.30
2022-11-22T07:06:53.196Z,13.13
2022-11-22T07:09:21.320Z,17.73
2022-11-22T07:11:49.449Z,14.80
2022-11-22T07:14:18.170Z,15.63
2022-11-22T07:16:49.148Z,25.20
2022-11-22T07:19:17.583Z,19.57
2022-11-22T07:21:45.987Z,14.63
2022-11-22T07:24:19.469Z,21.17
2022-11-22T07:26:47.798Z,16.73
2022-11-22T07:29:16.679Z,16.53
2022-11-22T07:31:48.134Z,19.90
2022-11-22T07:34:18.107Z,9.70
2022-11-22T07:39:43.675Z,9.13
2022-11-22T07:42:58.584Z,14.00
2022-11-22T07:45:47.745Z,15.97
2022-11-22T07:51:36.225Z,14.43
2022-11-22T07:54:57.863Z,17.07
2022-11-22T08:01:55.020Z,23.47
2022-11-22T08:11:42.380Z,18.80
2022-11-22T08:14:54.262Z,12.97
2022-11-22T08:17:39.575Z,10.50
2022-11-22T08:20:15.105Z,21.73
2022-11-22T08:23:01.902Z,23.00
2022-11-22T08:25:32.805Z,18.27
2022-11-22T08:28:13.728Z,22.40
2022-11-22T08:30:48.191Z,13.33
2022-11-22T08:33:31.497Z,16.70
2022-11-22T08:36:08.479Z,15.33
2022-11-22T08:38:45.321Z,21.97
2022-11-22T08:41:30.498Z,22.33
2022-11-22T08:52:06.283Z,10.47
2022-11-22T08:59:50.080Z,19.87
2022-11-22T09:09:42.471Z,27.27
2022-11-22T09:14:15.437Z,21.13
2022-11-22T09:18:08.603Z,19.70
2022-11-22T09:21:16.483Z,22.23
2022-11-22T09:24:31.441Z,12.33
2022-11-22T09:27:02.796Z,10.67
2022-11-22T09:30:08.158Z,16.73
2022-11-22T09:32:36.838Z,22.33
2022-11-22T09:35:11.911Z,25.40
2022-11-22T09:37:40.219Z,27.70
2022-11-22T09:40:21.473Z,3.80
2022-11-22T09:43:25.998Z,23.43
2022-11-22T09:46:44.690Z,19.87
2022-11-22T09:50:10.580Z,20.03
2022-11-22T09:53:13.234Z,27.37
2022-11-22T10:00:35.405Z,26.87
2022-11-22T10:19:49.493Z,16.30
2022-11-22T10:22:19.494Z,26.70
2022-11-22T10:24:48.266Z,20.63
2022-11-22T10:27:18.106Z,26.00
2022-11-22T10:29:53.789Z,22.40
2022-11-22T10:32:28.807Z,26.87
2022-11-22T10:35:14.656Z,16.03
2022-11-22T10:37:52.270Z,17.67
2022-11-22T10:40:27.100Z,27.93
2022-11-22T10:43:12.252Z,32.80
2022-11-22T10:45:47.528Z,24.00
2022-11-22T10:48:29.102Z,27.93
2022-11-22T10:51:20.377Z,19.43
2022-11-22T10:54:39.067Z,26.23
2022-11-22T10:57:41.264Z,27.37
2022-11-22T11:00:39.403Z,29.70
2022-11-22T11:03:22.235Z,20.17
2022-11-22T11:09:54.886Z,18.83
2022-11-22T11:13:03.332Z,31.50
2022-11-22T11:15:56.064Z,16.40
2022-11-22T11:26:07.056Z,26.33
2022-11-22T11:29:01.923Z,20.10
2022-11-22T11:51:21.885Z,20.00
2022-11-22T11:55:04.461Z,22.50
2022-11-22T11:57:46.655Z,14.60
2022-11-22T12:00:24.789Z,19.10
2022-11-22T12:03:07.572Z,23.17
2022-11-22T12:05:38.954Z,24.30
2022-11-22T12:08:49.217Z,16.07
2022-11-22T12:11:52.267Z,17.30
2022-11-22T12:14:37.748Z,19.27
2022-11-22T12:17:28.903Z,17.97
2022-11-22T12:20:06.908Z,23.70
2022-11-22T12:22:49.782Z,17.63
2022-11-22T12:25:36.600Z,26.47
2022-11-22T12:28:20.149Z,21.10
2022-11-22T12:30:57.678Z,17.60
2022-11-22T12:37:25.346Z,24.93
2022-11-22T12:39:57.077Z,7.83
2022-11-22T12:42:35.702Z,27.63
2022-11-22T12:45:18.445Z,19.63
2022-11-22T12:47:51.845Z,22.13
2022-11-22T12:50:39.916Z,22.50
2022-11-22T12:53:14.330Z,24.07
2022-11-22T12:55:49.947Z,13.43
2022-11-22T12:58:22.357Z,3.63
2022-11-22T13:01:05.729Z,23.17
2022-11-22T13:03:39.721Z,22.67
2022-11-22T13:06:09.874Z,18.70
2022-11-22T13:08:42.832Z,20.40
2022-11-22T13:11:17.472Z,23.67
2022-11-22T13:13:48.705Z,25.93
2022-11-22T13:16:16.389Z,22.03
2022-11-22T13:18:47.685Z,23.23
2022-11-22T13:21:23.363Z,23.07
2022-11-22T13:24:08.961Z,17.90
2022-11-22T13:26:43.304Z,20.53
2022-11-22T13:29:21.999Z,15.30
2022-11-22T13:32:04.523Z,19.27
2022-11-22T13:34:33.960Z,22.77
2022-11-22T13:37:10.898Z,22.67
2022-11-22T13:39:44.368Z,22.47
2022-11-22T13:42:18.570Z,27.90
2022-11-22T13:45:13.503Z,26.70
2022-11-22T13:47:43.112Z,20.30
2022-11-22T13:50:57.042Z,20.63
2022-11-22T13:53:28.944Z,19.77
2022-11-22T13:55:58.101Z,22.83
2022-11-22T13:58:52.492Z,20.73
2022-11-22T14:01:58.228Z,19.53
2022-11-22T14:04:34.878Z,20.93
2022-11-22T14:07:05.911Z,21.53
2022-11-22T14:09:38.319Z,14.60
2022-11-22T14:12:24.085Z,20.33
2022-11-22T14:15:12.663Z,18.83
2022-11-22T14:17:51.796Z,16.93
2022-11-22T14:20:35.963Z,28.17
2022-11-22T14:23:11.382Z,20.07
2022-11-22T14:25:56.590Z,26.20
2022-11-22T14:28:59.515Z,23.37
2022-11-22T14:31:32.075Z,18.07
2022-11-22T14:34:21.809Z,28.03
2022-11-22T14:37:37.887Z,28.80
2022-11-22T14:40:27.102Z,20.13
2022-11-22T14:43:00.663Z,17.57
2022-11-22T14:45:39.672Z,23.03
2022-11-22T14:48:17.595Z,24.30
2022-11-22T14:50:49.113Z,23.00
2022-11-22T14:53:24.163Z,21.53
2022-11-22T14:55:55.745Z,23.20
2022-11-22T14:58:26.716Z,20.20
2022-11-22T15:01:16.197Z,17.83
2022-11-22T15:09:21.286Z,19.57
2022-11-22T15:09:21.751Z,20.30
2022-11-22T15:10:25.719Z,21.47
2022-11-22T15:13:08.966Z,25.60
2022-11-22T15:59:01.638Z,21.57
2022-11-22T16:01:29.529Z,23.20
2022-11-22T16:03:59.601Z,19.67
2022-11-22T16:06:30.737Z,26.77
2022-11-22T16:09:01.573Z,26.43
2022-11-22T16:11:34.725Z,22.23
2022-11-22T16:14:02.278Z,21.47
2022-11-22T16:16:31.481Z,21.67
2022-11-22T16:19:21.972Z,28.03
2022-11-22T16:22:28.569Z,25.03
2022-11-22T16:25:23.475Z,26.10
2022-11-22T16:27:52.360Z,21.17
2022-11-22T16:30:23.602Z,20.87
2022-11-22T16:32:53.732Z,34.20
2022-11-22T16:35:29.455Z,17.37
2022-11-22T16:37:57.397Z,30.73
2022-11-22T16:40:24.976Z,29.40
2022-11-22T16:42:54.021Z,19.40
2022-11-22T16:45:22.952Z,26.57
2022-11-22T16:48:03.810Z,32.47
2022-11-22T16:50:39.776Z,21.83
2022-11-22T16:53:12.146Z,27.50
2022-11-22T16:55:40.210Z,24.30
2022-11-22T16:58:16.398Z,25.53
2022-11-22T17:00:44.975Z,27.93
2022-11-22T17:03:15.538Z,24.07
2022-11-22T17:05:43.019Z,33.47
2022-11-22T17:08:13.425Z,29.00
2022-11-22T17:10:43.898Z,22.33
2022-11-22T17:13:17.247Z,26.80
2022-11-22T17:15:45.264Z,28.90
2022-11-22T17:18:12.718Z,26.37
2022-11-22T17:20:40.615Z,23.13
2022-11-22T17:23:13.965Z,25.13
2022-11-22T17:25:41.497Z,31.60
2022-11-22T17:28:08.923Z,29.20
2022-11-22T17:30:37.994Z,22.07
2022-11-22T17:33:05.528Z,23.27
2022-11-22T17:35:37.063Z,29.50
2022-11-22T17:38:05.217Z,30.10
2022-11-22T17:40:32.764Z,21.10
2022-11-22T17:43:00.341Z,29.83
2022-11-22T17:45:28.069Z,13.67
2022-11-22T17:47:56.856Z,24.77
2022-11-22T17:50:24.371Z,27.20
2022-11-22T17:52:52.878Z,23.53
2022-11-22T17:55:20.339Z,19.00
2022-11-22T17:57:51.609Z,21.70
2022-11-22T18:00:28.428Z,24.40
2022-11-22T18:03:01.488Z,28.67
2022-11-22T18:05:35.450Z,25.73
2022-11-22T18:08:03.038Z,30.37
2022-11-22T18:10:30.583Z,21.50
2022-11-22T18:13:20.331Z,27.90
2022-11-22T18:15:46.210Z,27.37
2022-11-22T18:18:40.311Z,22.30
2022-11-22T18:21:04.022Z,27.10
2022-11-22T18:23:33.996Z,31.70
2022-11-22T18:26:38.831Z,15.90
2022-11-22T18:29:16.115Z,25.07
2022-11-22T18:31:51.235Z,23.57
2022-11-22T18:34:27.436Z,26.47
2022-11-22T18:37:00.450Z,27.40
2022-11-22T18:39:36.291Z,28.73
2022-11-22T18:42:05.217Z,24.87
2022-11-22T18:44:32.715Z,27.83
2022-11-22T18:47:00.270Z,30.23
2022-11-22T18:49:29.436Z,32.70
2022-11-22T18:51:57.307Z,28.93
2022-11-22T18:55:00.440Z,21.13
2022-11-22T18:57:47.346Z,40.10
2022-11-22T19:00:17.198Z,27.63
2022-11-22T19:02:45.717Z,21.97
2022-11-22T19:05:15.318Z,31.77
2022-11-22T19:07:44.124Z,27.23
2022-11-22T19:10:11.804Z,26.10
2022-11-22T19:12:39.401Z,19.40
2022-11-22T19:15:08.138Z,25.17
2022-11-22T19:17:39.029Z,23.97
2022-11-22T19:20:39.239Z,25.03
2022-11-22T19:23:50.937Z,27.37
2022-11-22T19:26:56.067Z,19.97
2022-11-22T19:29:26.968Z,25.67
2022-11-22T19:36:09.930Z,29.47
2022-11-22T19:38:42.041Z,21.23
2022-11-22T19:41:20.335Z,23.87
2022-11-22T19:43:54.089Z,28.80
2022-11-22T19:46:21.621Z,28.97
2022-11-22T19:48:55.003Z,27.37
2022-11-22T19:51:24.076Z,30.53
2022-11-22T19:54:20.913Z,30.27
2022-11-22T19:56:50.800Z,29.30
2022-11-22T19:59:19.732Z,32.40
2022-11-22T20:01:50.572Z,31.33
2022-11-22T20:04:21.446Z,33.00
2022-11-22T20:06:50.529Z,26.97
2022-11-22T20:09:28.466Z,25.83
2022-11-22T20:12:00.813Z,31.30
2022-11-22T20:14:39.255Z,24.83
2022-11-22T20:17:07.177Z,26.80
2022-11-22T20:19:35.539Z,26.50
2022-11-22T20:22:06.371Z,32.27
2022-11-22T20:24:42.158Z,26.27
2022-11-22T20:27:13.973Z,27.70
2022-11-22T20:29:45.046Z,26.80
2022-11-22T20:32:20.712Z,23.27
2022-11-22T20:34:51.464Z,22.77
2022-11-22T20:37:46.730Z,29.03
2022-11-22T20:40:14.516Z,24.90
2022-11-22T20:42:46.707Z,28.10
2022-11-22T20:45:23.861Z,29.83
2022-11-22T20:48:16.705Z,28.43
2022-11-22T20:50:50.841Z,22.77
2022-11-22T20:53:18.960Z,26.23
2022-11-22T20:56:10.722Z,25.13
2022-11-22T21:01:29.544Z,23.00
2022-11-22T21:03:57.155Z,31.30
2022-11-22T21:06:42.464Z,26.27
2022-11-22T21:09:20.650Z,24.07
2022-11-22T21:11:54.156Z,36.43
2022-11-22T21:14:21.703Z,26.63
2022-11-22T21:16:50.592Z,26.83
2022-11-22T21:19:18.590Z,28.00
2022-11-22T21:21:46.198Z,32.90
2022-11-22T21:24:13.992Z,22.17
2022-11-22T21:26:41.833Z,22.90
2022-11-22T21:29:16.485Z,22.83
2022-11-22T21:31:44.549Z,24.27
2022-11-22T21:34:15.900Z,17.23
2022-11-22T21:36:43.759Z,24.27
2022-11-22T21:39:11.551Z,24.50
2022-11-22T21:41:40.879Z,24.23
2022-11-22T21:44:09.372Z,18.70
2022-11-22T21:46:37.502Z,29.23
2022-11-22T21:49:05.182Z,28.43
2022-11-22T21:51:34.173Z,25.83
2022-11-22T21:54:02.888Z,36.40
2022-11-22T21:56:31.591Z,29.47
2022-11-22T21:58:59.374Z,21.73
2022-11-22T22:01:27.763Z,25.93
2022-11-22T22:03:55.761Z,21.07
2022-11-22T22:06:23.602Z,20.93
2022-11-22T22:08:52.594Z,27.53
2022-11-22T22:11:20.208Z,27.83
2022-11-22T22:13:47.669Z,39.27
2022-11-22T22:16:19.019Z,25.03
2022-11-22T22:18:47.170Z,28.20
2022-11-22T22:21:15.768Z,27.33
2022-11-22T22:23:44.896Z,22.63
2022-11-22T22:26:15.320Z,30.93
2022-11-22T22:28:44.174Z,29.50
2022-11-22T22:31:13.726Z,26.60
2022-11-22T22:33:42.396Z,31.27
2022-11-22T22:36:11.305Z,26.53
2022-11-22T22:38:39.733Z,23.97
2022-11-22T22:41:08.316Z,30.03
2022-11-22T22:43:40.201Z,28.53
2022-11-22T22:46:10.662Z,34.00
2022-11-22T22:48:38.457Z,27.93
2022-11-22T22:51:08.052Z,25.50
2022-11-22T22:53:35.848Z,25.27
2022-11-22T22:56:03.776Z,26.00
2022-11-22T22:58:31.287Z,36.60
2022-11-22T23:01:07.159Z,29.57
2022-11-22T23:03:34.802Z,26.30
2022-11-22T23:06:06.266Z,22.10
2022-11-22T23:08:33.775Z,26.90
2022-11-22T23:11:06.431Z,31.33
2022-11-22T23:13:36.280Z,26.37
2022-11-22T23:16:04.059Z,28.50
2022-11-22T23:18:36.419Z,34.20
2022-11-22T23:21:05.340Z,21.37
2022-11-22T23:23:33.174Z,21.70
2022-11-22T23:26:02.749Z,25.67
2022-11-22T23:28:30.319Z,33.00
2022-11-22T23:30:58.111Z,30.07
2022-11-22T23:33:25.657Z,26.70
2022-11-22T23:35:54.464Z,28.20
2022-11-22T23:38:21.980Z,25.27
2022-11-22T23:40:53.742Z,35.37
2022-11-22T23:43:21.270Z,28.63
2022-11-22T23:45:48.757Z,25.97
2022-11-22T23:48:16.684Z,27.07
2022-11-22T23:50:44.364Z,30.57
2022-11-22T23:53:13.205Z,27.30
2022-11-22T23:55:40.671Z,31.40
2022-11-22T23:58:08.305Z,26.57
